sensor_id;sensor_type;location;lat;lon;timestamp;P1;durP1;ratioP1;P2;durP2;ratioP2
36745;SDS011;22715;52.182;21.206;2022-10-13T00:00:58;42.35;;;27.35;;
36745;SDS011;22715;52.182;21.206;2022-10-13T00:03:24;43.75;;;24.83;;
36745;SDS011;22715;52.182;21.206;2022-10-13T00:05:49;45.92;;;25.80;;
36745;SDS011;22715;52.182;21.206;2022-10-13T00:08:17;40.80;;;24.20;;
36745;SDS011;22715;52.182;21.206;2022-10-13T00:10:43;45.80;;;23.38;;
36745;SDS011;22715;52.182;21.206;2022-10-13T00:13:08;45.72;;;24.17;;
36745;SDS011;22715;52.182;21.206;2022-10-13T00:15:37;37.85;;;23.38;;
36745;SDS011;22715;52.182;21.206;2022-10-13T00:18:03;43.13;;;23.13;;
36745;SDS011;22715;52.182;21.206;2022-10-13T00:20:28;42.78;;;25.15;;
36745;SDS011;22715;52.182;21.206;2022-10-13T00:22:54;40.83;;;25.15;;
36745;SDS011;22715;52.182;21.206;2022-10-13T00:25:19;47.78;;;25.13;;
36745;SDS011;22715;52.182;21.206;2022-10-13T00:27:44;38.33;;;24.23;;
36745;SDS011;22715;52.182;21.206;2022-10-13T00:30:09;32.28;;;21.15;;
36745;SDS011;22715;52.182;21.206;2022-10-13T00:32:35;39.72;;;23.20;;
36745;SDS011;22715;52.182;21.206;2022-10-13T00:35:00;34.10;;;23.85;;
36745;SDS011;22715;52.182;21.206;2022-10-13T00:37:25;39.90;;;25.58;;
36745;SDS011;22715;52.182;21.206;2022-10-13T00:39:51;41.22;;;23.23;;
36745;SDS011;22715;52.182;21.206;2022-10-13T00:42:16;36.30;;;22.63;;
36745;SDS011;22715;52.182;21.206;2022-10-13T00:45:03;33.45;;;23.27;;
36745;SDS011;22715;52.182;21.206;2022-10-13T00:47:51;28.58;;;20.42;;
36745;SDS011;22715;52.182;21.206;2022-10-13T00:50:19;31.60;;;21.25;;
36745;SDS011;22715;52.182;21.206;2022-10-13T00:55:10;34.13;;;20.30;;
36745;SDS011;22715;52.182;21.206;2022-10-13T00:57:38;36.05;;;21.98;;
36745;SDS011;22715;52.182;21.206;2022-10-13T01:00:04;30.67;;;23.02;;
36745;SDS011;22715;52.182;21.206;2022-10-13T01:02:31;37.78;;;23.38;;
36745;SDS011;22715;52.182;21.206;2022-10-13T01:04:56;38.63;;;22.60;;
36745;SDS011;22715;52.182;21.206;2022-10-13T01:07:22;40.63;;;24.23;;
36745;SDS011;22715;52.182;21.206;2022-10-13T01:09:47;35.42;;;22.15;;
36745;SDS011;22715;52.182;21.206;2022-10-13T01:12:21;40.92;;;23.00;;
36745;SDS011;22715;52.182;21.206;2022-10-13T01:14:50;36.30;;;22.83;;
36745;SDS011;22715;52.182;21.206;2022-10-13T01:22:26;41.10;;;20.58;;
36745;SDS011;22715;52.182;21.206;2022-10-13T01:35:10;31.27;;;18.77;;
36745;SDS011;22715;52.182;21.206;2022-10-13T01:37:41;35.75;;;20.35;;
36745;SDS011;22715;52.182;21.206;2022-10-13T01:40:20;36.58;;;22.55;;
36745;SDS011;22715;52.182;21.206;2022-10-13T01:45:36;39.55;;;22.85;;
36745;SDS011;22715;52.182;21.206;2022-10-13T01:48:02;39.22;;;20.42;;
36745;SDS011;22715;52.182;21.206;2022-10-13T01:50:28;33.15;;;21.10;;
36745;SDS011;22715;52.182;21.206;2022-10-13T01:52:54;49.05;;;20.75;;
36745;SDS011;22715;52.182;21.206;2022-10-13T01:55:22;39.70;;;21.48;;
36745;SDS011;22715;52.182;21.206;2022-10-13T01:57:47;37.95;;;21.30;;
36745;SDS011;22715;52.182;21.206;2022-10-13T02:00:13;39.17;;;22.50;;
36745;SDS011;22715;52.182;21.206;2022-10-13T02:07:52;39.50;;;22.95;;
36745;SDS011;22715;52.182;21.206;2022-10-13T02:10:22;35.17;;;23.92;;
36745;SDS011;22715;52.182;21.206;2022-10-13T02:15:17;38.58;;;23.13;;
36745;SDS011;22715;52.182;21.206;2022-10-13T02:17:43;42.90;;;23.90;;
36745;SDS011;22715;52.182;21.206;2022-10-13T02:20:09;41.60;;;22.10;;
36745;SDS011;22715;52.182;21.206;2022-10-13T02:22:39;48.47;;;22.33;;
36745;SDS011;22715;52.182;21.206;2022-10-13T02:25:06;35.78;;;21.27;;
36745;SDS011;22715;52.182;21.206;2022-10-13T02:27:31;38.33;;;22.88;;
36745;SDS011;22715;52.182;21.206;2022-10-13T02:29:57;37.88;;;23.92;;
36745;SDS011;22715;52.182;21.206;2022-10-13T02:32:22;32.03;;;20.35;;
36745;SDS011;22715;52.182;21.206;2022-10-13T02:34:47;38.78;;;24.27;;
36745;SDS011;22715;52.182;21.206;2022-10-13T02:37:13;31.58;;;21.25;;
36745;SDS011;22715;52.182;21.206;2022-10-13T02:39:38;39.15;;;22.23;;
36745;SDS011;22715;52.182;21.206;2022-10-13T02:42:03;35.95;;;22.42;;
36745;SDS011;22715;52.182;21.206;2022-10-13T02:44:29;38.42;;;21.02;;
36745;SDS011;22715;52.182;21.206;2022-10-13T02:46:54;38.13;;;22.42;;
36745;SDS011;22715;52.182;21.206;2022-10-13T02:49:19;37.63;;;22.45;;
36745;SDS011;22715;52.182;21.206;2022-10-13T02:51:45;35.97;;;21.58;;
36745;SDS011;22715;52.182;21.206;2022-10-13T02:54:10;34.25;;;23.02;;
36745;SDS011;22715;52.182;21.206;2022-10-13T02:56:35;29.10;;;19.42;;
36745;SDS011;22715;52.182;21.206;2022-10-13T02:59:00;33.10;;;23.02;;
36745;SDS011;22715;52.182;21.206;2022-10-13T03:01:26;33.55;;;19.65;;
36745;SDS011;22715;52.182;21.206;2022-10-13T03:03:51;33.63;;;21.63;;
36745;SDS011;22715;52.182;21.206;2022-10-13T03:06:16;37.55;;;20.80;;
36745;SDS011;22715;52.182;21.206;2022-10-13T03:08:41;28.83;;;19.15;;
36745;SDS011;22715;52.182;21.206;2022-10-13T03:11:07;37.90;;;20.27;;
36745;SDS011;22715;52.182;21.206;2022-10-13T03:13:32;39.80;;;20.40;;
36745;SDS011;22715;52.182;21.206;2022-10-13T03:15:57;32.92;;;19.67;;
36745;SDS011;22715;52.182;21.206;2022-10-13T03:18:23;36.58;;;21.05;;
36745;SDS011;22715;52.182;21.206;2022-10-13T03:20:58;35.25;;;20.27;;
36745;SDS011;22715;52.182;21.206;2022-10-13T03:23:24;35.25;;;21.05;;
36745;SDS011;22715;52.182;21.206;2022-10-13T03:25:49;33.05;;;19.65;;
36745;SDS011;22715;52.182;21.206;2022-10-13T03:28:14;34.90;;;19.13;;
36745;SDS011;22715;52.182;21.206;2022-10-13T03:30:41;37.22;;;20.38;;
36745;SDS011;22715;52.182;21.206;2022-10-13T03:33:06;36.15;;;21.02;;
36745;SDS011;22715;52.182;21.206;2022-10-13T03:35:31;37.78;;;21.50;;
36745;SDS011;22715;52.182;21.206;2022-10-13T03:37:57;32.42;;;19.75;;
36745;SDS011;22715;52.182;21.206;2022-10-13T03:40:23;43.63;;;22.25;;
36745;SDS011;22715;52.182;21.206;2022-10-13T03:42:48;33.33;;;20.80;;
36745;SDS011;22715;52.182;21.206;2022-10-13T03:45:14;34.38;;;19.48;;
36745;SDS011;22715;52.182;21.206;2022-10-13T03:47:39;27.90;;;17.58;;
36745;SDS011;22715;52.182;21.206;2022-10-13T03:50:05;34.55;;;20.67;;
36745;SDS011;22715;52.182;21.206;2022-10-13T03:52:30;39.88;;;20.65;;
36745;SDS011;22715;52.182;21.206;2022-10-13T03:54:55;32.40;;;20.23;;
36745;SDS011;22715;52.182;21.206;2022-10-13T03:57:21;36.13;;;21.50;;
36745;SDS011;22715;52.182;21.206;2022-10-13T03:59:46;37.70;;;21.35;;
36745;SDS011;22715;52.182;21.206;2022-10-13T04:02:11;34.70;;;22.10;;
36745;SDS011;22715;52.182;21.206;2022-10-13T04:04:37;34.63;;;22.33;;
36745;SDS011;22715;52.182;21.206;2022-10-13T04:07:06;32.20;;;20.00;;
36745;SDS011;22715;52.182;21.206;2022-10-13T04:09:31;44.92;;;21.25;;
36745;SDS011;22715;52.182;21.206;2022-10-13T04:11:57;35.85;;;20.55;;
36745;SDS011;22715;52.182;21.206;2022-10-13T04:14:22;32.30;;;21.20;;
36745;SDS011;22715;52.182;21.206;2022-10-13T04:16:48;30.98;;;22.60;;
36745;SDS011;22715;52.182;21.206;2022-10-13T04:19:13;40.35;;;20.92;;
36745;SDS011;22715;52.182;21.206;2022-10-13T04:21:39;40.10;;;23.77;;
36745;SDS011;22715;52.182;21.206;2022-10-13T04:24:05;44.28;;;28.55;;
36745;SDS011;22715;52.182;21.206;2022-10-13T04:26:31;46.22;;;28.42;;
36745;SDS011;22715;52.182;21.206;2022-10-13T04:28:57;50.10;;;29.27;;
36745;SDS011;22715;52.182;21.206;2022-10-13T04:31:23;53.15;;;30.65;;
36745;SDS011;22715;52.182;21.206;2022-10-13T04:33:48;60.92;;;34.38;;
36745;SDS011;22715;52.182;21.206;2022-10-13T04:36:14;57.95;;;31.75;;
36745;SDS011;22715;52.182;21.206;2022-10-13T04:38:40;34.15;;;23.50;;
36745;SDS011;22715;52.182;21.206;2022-10-13T04:41:06;40.72;;;22.15;;
36745;SDS011;22715;52.182;21.206;2022-10-13T04:43:31;35.40;;;20.30;;
36745;SDS011;22715;52.182;21.206;2022-10-13T04:46:05;28.52;;;17.73;;
36745;SDS011;22715;52.182;21.206;2022-10-13T04:48:31;31.17;;;21.17;;
36745;SDS011;22715;52.182;21.206;2022-10-13T04:50:57;48.92;;;20.52;;
36745;SDS011;22715;52.182;21.206;2022-10-13T04:53:22;43.65;;;24.58;;
36745;SDS011;22715;52.182;21.206;2022-10-13T04:55:48;39.60;;;22.60;;
36745;SDS011;22715;52.182;21.206;2022-10-13T04:58:13;35.45;;;23.50;;
36745;SDS011;22715;52.182;21.206;2022-10-13T05:00:38;54.92;;;28.38;;
36745;SDS011;22715;52.182;21.206;2022-10-13T05:03:04;40.13;;;23.13;;
36745;SDS011;22715;52.182;21.206;2022-10-13T05:05:29;37.10;;;22.48;;
36745;SDS011;22715;52.182;21.206;2022-10-13T05:07:54;36.97;;;18.88;;
36745;SDS011;22715;52.182;21.206;2022-10-13T05:10:19;32.92;;;19.27;;
36745;SDS011;22715;52.182;21.206;2022-10-13T05:12:45;33.78;;;19.58;;
36745;SDS011;22715;52.182;21.206;2022-10-13T05:15:10;34.97;;;19.70;;
36745;SDS011;22715;52.182;21.206;2022-10-13T05:17:35;30.98;;;18.40;;
36745;SDS011;22715;52.182;21.206;2022-10-13T05:20:01;25.45;;;19.60;;
36745;SDS011;22715;52.182;21.206;2022-10-13T05:22:26;29.05;;;20.00;;
36745;SDS011;22715;52.182;21.206;2022-10-13T05:24:51;35.17;;;20.27;;
36745;SDS011;22715;52.182;21.206;2022-10-13T05:27:17;28.00;;;17.98;;
36745;SDS011;22715;52.182;21.206;2022-10-13T05:29:42;36.97;;;18.67;;
36745;SDS011;22715;52.182;21.206;2022-10-13T05:32:07;28.10;;;17.35;;
36745;SDS011;22715;52.182;21.206;2022-10-13T05:34:36;32.22;;;19.15;;
36745;SDS011;22715;52.182;21.206;2022-10-13T05:37:01;33.35;;;18.58;;
36745;SDS011;22715;52.182;21.206;2022-10-13T05:39:26;31.40;;;19.17;;
36745;SDS011;22715;52.182;21.206;2022-10-13T05:41:51;29.40;;;17.95;;
36745;SDS011;22715;52.182;21.206;2022-10-13T05:44:17;34.20;;;18.52;;
36745;SDS011;22715;52.182;21.206;2022-10-13T05:46:43;25.55;;;16.48;;
36745;SDS011;22715;52.182;21.206;2022-10-13T05:49:08;29.33;;;16.95;;
36745;SDS011;22715;52.182;21.206;2022-10-13T05:51:42;29.73;;;19.13;;
36745;SDS011;22715;52.182;21.206;2022-10-13T05:54:09;27.13;;;19.50;;
36745;SDS011;22715;52.182;21.206;2022-10-13T05:56:39;43.08;;;22.25;;
36745;SDS011;22715;52.182;21.206;2022-10-13T05:59:05;44.25;;;24.20;;
36745;SDS011;22715;52.182;21.206;2022-10-13T06:01:32;41.75;;;23.40;;
36745;SDS011;22715;52.182;21.206;2022-10-13T06:03:59;38.67;;;20.30;;
36745;SDS011;22715;52.182;21.206;2022-10-13T06:06:26;37.33;;;22.88;;
36745;SDS011;22715;52.182;21.206;2022-10-13T06:08:52;30.15;;;21.08;;
36745;SDS011;22715;52.182;21.206;2022-10-13T06:11:17;38.47;;;21.02;;
36745;SDS011;22715;52.182;21.206;2022-10-13T06:13:42;36.58;;;21.65;;
36745;SDS011;22715;52.182;21.206;2022-10-13T06:16:08;32.88;;;19.10;;
36745;SDS011;22715;52.182;21.206;2022-10-13T06:18:36;27.67;;;18.88;;
36745;SDS011;22715;52.182;21.206;2022-10-13T06:21:01;34.33;;;19.85;;
36745;SDS011;22715;52.182;21.206;2022-10-13T06:23:27;33.10;;;19.10;;
36745;SDS011;22715;52.182;21.206;2022-10-13T06:25:52;28.27;;;19.23;;
36745;SDS011;22715;52.182;21.206;2022-10-13T06:28:18;26.25;;;18.83;;
36745;SDS011;22715;52.182;21.206;2022-10-13T06:30:44;34.15;;;20.10;;
36745;SDS011;22715;52.182;21.206;2022-10-13T06:33:13;31.88;;;18.65;;
36745;SDS011;22715;52.182;21.206;2022-10-13T06:35:38;34.85;;;18.10;;
36745;SDS011;22715;52.182;21.206;2022-10-13T06:38:24;36.63;;;20.42;;
36745;SDS011;22715;52.182;21.206;2022-10-13T06:40:49;36.83;;;21.70;;
36745;SDS011;22715;52.182;21.206;2022-10-13T06:43:14;35.33;;;22.02;;
36745;SDS011;22715;52.182;21.206;2022-10-13T06:45:39;36.88;;;22.67;;
36745;SDS011;22715;52.182;21.206;2022-10-13T06:48:05;30.67;;;20.67;;
36745;SDS011;22715;52.182;21.206;2022-10-13T06:50:30;36.55;;;20.73;;
36745;SDS011;22715;52.182;21.206;2022-10-13T06:52:56;36.13;;;22.20;;
36745;SDS011;22715;52.182;21.206;2022-10-13T06:55:21;36.63;;;21.08;;
36745;SDS011;22715;52.182;21.206;2022-10-13T06:57:47;35.67;;;21.95;;
36745;SDS011;22715;52.182;21.206;2022-10-13T07:00:12;35.58;;;20.52;;
36745;SDS011;22715;52.182;21.206;2022-10-13T07:02:37;32.42;;;19.60;;
36745;SDS011;22715;52.182;21.206;2022-10-13T07:05:03;33.47;;;20.08;;
36745;SDS011;22715;52.182;21.206;2022-10-13T07:07:28;35.15;;;18.10;;
36745;SDS011;22715;52.182;21.206;2022-10-13T07:09:54;28.83;;;17.75;;
36745;SDS011;22715;52.182;21.206;2022-10-13T07:12:19;28.05;;;17.00;;
36745;SDS011;22715;52.182;21.206;2022-10-13T07:14:46;30.58;;;17.00;;
36745;SDS011;22715;52.182;21.206;2022-10-13T07:17:11;36.65;;;19.73;;
36745;SDS011;22715;52.182;21.206;2022-10-13T07:19:36;32.22;;;19.33;;
36745;SDS011;22715;52.182;21.206;2022-10-13T07:22:02;27.77;;;19.10;;
36745;SDS011;22715;52.182;21.206;2022-10-13T07:24:27;28.77;;;18.20;;
36745;SDS011;22715;52.182;21.206;2022-10-13T07:26:52;31.20;;;18.50;;
36745;SDS011;22715;52.182;21.206;2022-10-13T07:29:18;31.20;;;20.27;;
36745;SDS011;22715;52.182;21.206;2022-10-13T07:31:43;36.55;;;22.90;;
36745;SDS011;22715;52.182;21.206;2022-10-13T07:34:09;40.03;;;21.80;;
36745;SDS011;22715;52.182;21.206;2022-10-13T07:36:34;48.88;;;27.77;;
36745;SDS011;22715;52.182;21.206;2022-10-13T07:39:00;33.15;;;20.33;;
36745;SDS011;22715;52.182;21.206;2022-10-13T07:41:26;29.33;;;19.15;;
36745;SDS011;22715;52.182;21.206;2022-10-13T07:43:55;40.20;;;19.27;;
36745;SDS011;22715;52.182;21.206;2022-10-13T07:46:21;31.40;;;20.77;;
36745;SDS011;22715;52.182;21.206;2022-10-13T07:48:46;31.20;;;17.35;;
36745;SDS011;22715;52.182;21.206;2022-10-13T07:51:11;28.52;;;17.33;;
36745;SDS011;22715;52.182;21.206;2022-10-13T07:53:37;32.20;;;19.13;;
36745;SDS011;22715;52.182;21.206;2022-10-13T07:59:08;37.88;;;22.70;;
36745;SDS011;22715;52.182;21.206;2022-10-13T08:01:34;35.85;;;22.38;;
36745;SDS011;22715;52.182;21.206;2022-10-13T08:03:59;25.98;;;19.25;;
36745;SDS011;22715;52.182;21.206;2022-10-13T08:06:24;33.38;;;18.73;;
36745;SDS011;22715;52.182;21.206;2022-10-13T08:09:01;26.83;;;17.43;;
36745;SDS011;22715;52.182;21.206;2022-10-13T08:11:30;30.23;;;17.90;;
36745;SDS011;22715;52.182;21.206;2022-10-13T08:13:56;24.63;;;16.52;;
36745;SDS011;22715;52.182;21.206;2022-10-13T08:16:25;29.10;;;16.15;;
36745;SDS011;22715;52.182;21.206;2022-10-13T08:18:50;24.52;;;14.35;;
36745;SDS011;22715;52.182;21.206;2022-10-13T08:21:16;26.70;;;13.57;;
36745;SDS011;22715;52.182;21.206;2022-10-13T08:23:42;35.85;;;16.65;;
36745;SDS011;22715;52.182;21.206;2022-10-13T08:26:41;26.27;;;14.60;;
36745;SDS011;22715;52.182;21.206;2022-10-13T08:28:59;22.85;;;13.32;;
36745;SDS011;22715;52.182;21.206;2022-10-13T08:31:25;25.08;;;15.25;;
36745;SDS011;22715;52.182;21.206;2022-10-13T08:33:50;21.30;;;12.57;;
36745;SDS011;22715;52.182;21.206;2022-10-13T08:36:16;20.58;;;11.00;;
36745;SDS011;22715;52.182;21.206;2022-10-13T08:38:42;15.13;;;10.63;;
36745;SDS011;22715;52.182;21.206;2022-10-13T08:41:27;15.30;;;8.55;;
36745;SDS011;22715;52.182;21.206;2022-10-13T08:44:00;16.15;;;9.95;;
36745;SDS011;22715;52.182;21.206;2022-10-13T08:46:48;16.48;;;8.25;;
36745;SDS011;22715;52.182;21.206;2022-10-13T08:49:20;17.65;;;6.57;;
36745;SDS011;22715;52.182;21.206;2022-10-13T08:51:48;12.73;;;8.27;;
36745;SDS011;22715;52.182;21.206;2022-10-13T08:54:14;12.98;;;8.32;;
36745;SDS011;22715;52.182;21.206;2022-10-13T08:56:48;14.25;;;8.13;;
36745;SDS011;22715;52.182;21.206;2022-10-13T08:59:15;16.75;;;9.93;;
36745;SDS011;22715;52.182;21.206;2022-10-13T09:01:41;10.95;;;7.50;;
36745;SDS011;22715;52.182;21.206;2022-10-13T09:04:15;10.93;;;5.88;;
36745;SDS011;22715;52.182;21.206;2022-10-13T09:09:23;11.55;;;5.95;;
36745;SDS011;22715;52.182;21.206;2022-10-13T09:14:59;14.80;;;5.93;;
36745;SDS011;22715;52.182;21.206;2022-10-13T09:17:35;11.93;;;5.30;;
36745;SDS011;22715;52.182;21.206;2022-10-13T09:20:05;12.13;;;5.40;;
36745;SDS011;22715;52.182;21.206;2022-10-13T09:22:44;11.25;;;4.70;;
36745;SDS011;22715;52.182;21.206;2022-10-13T09:25:42;5.47;;;4.25;;
36745;SDS011;22715;52.182;21.206;2022-10-13T09:28:18;9.25;;;4.63;;
36745;SDS011;22715;52.182;21.206;2022-10-13T09:34:11;9.10;;;4.57;;
36745;SDS011;22715;52.182;21.206;2022-10-13T09:39:47;9.20;;;4.10;;
36745;SDS011;22715;52.182;21.206;2022-10-13T09:42:41;7.00;;;3.58;;
36745;SDS011;22715;52.182;21.206;2022-10-13T09:45:13;7.13;;;3.65;;
36745;SDS011;22715;52.182;21.206;2022-10-13T09:47:39;11.38;;;5.28;;
36745;SDS011;22715;52.182;21.206;2022-10-13T09:52:39;7.03;;;4.18;;
36745;SDS011;22715;52.182;21.206;2022-10-13T09:55:08;9.00;;;5.20;;
36745;SDS011;22715;52.182;21.206;2022-10-13T09:57:49;9.70;;;4.85;;
36745;SDS011;22715;52.182;21.206;2022-10-13T10:00:29;11.77;;;4.25;;
36745;SDS011;22715;52.182;21.206;2022-10-13T10:11:14;8.35;;;3.67;;
36745;SDS011;22715;52.182;21.206;2022-10-13T10:13:41;6.70;;;3.25;;
36745;SDS011;22715;52.182;21.206;2022-10-13T10:24:05;8.90;;;3.53;;
36745;SDS011;22715;52.182;21.206;2022-10-13T10:49:01;3.05;;;1.77;;
36745;SDS011;22715;52.182;21.206;2022-10-13T10:51:31;7.38;;;2.72;;
36745;SDS011;22715;52.182;21.206;2022-10-13T10:54:01;4.13;;;2.53;;
36745;SDS011;22715;52.182;21.206;2022-10-13T10:56:50;3.85;;;3.05;;
36745;SDS011;22715;52.182;21.206;2022-10-13T11:05:15;5.40;;;2.83;;
36745;SDS011;22715;52.182;21.206;2022-10-13T11:12:44;6.88;;;2.63;;
36745;SDS011;22715;52.182;21.206;2022-10-13T11:15:11;14.20;;;3.30;;
36745;SDS011;22715;52.182;21.206;2022-10-13T11:17:38;4.38;;;2.35;;
36745;SDS011;22715;52.182;21.206;2022-10-13T11:25:42;3.58;;;2.58;;
36745;SDS011;22715;52.182;21.206;2022-10-13T11:30:54;5.55;;;2.38;;
36745;SDS011;22715;52.182;21.206;2022-10-13T11:38:50;3.50;;;1.92;;
36745;SDS011;22715;52.182;21.206;2022-10-13T11:41:21;7.22;;;2.15;;
36745;SDS011;22715;52.182;21.206;2022-10-13T11:43:54;5.13;;;2.28;;
36745;SDS011;22715;52.182;21.206;2022-10-13T11:49:25;5.70;;;2.15;;
36745;SDS011;22715;52.182;21.206;2022-10-13T11:57:17;4.75;;;2.60;;
36745;SDS011;22715;52.182;21.206;2022-10-13T11:59:53;5.70;;;2.50;;
36745;SDS011;22715;52.182;21.206;2022-10-13T12:02:20;5.10;;;2.75;;
36745;SDS011;22715;52.182;21.206;2022-10-13T12:07:32;5.78;;;2.30;;
36745;SDS011;22715;52.182;21.206;2022-10-13T12:09:58;8.18;;;3.58;;
36745;SDS011;22715;52.182;21.206;2022-10-13T12:12:24;5.13;;;2.33;;
36745;SDS011;22715;52.182;21.206;2022-10-13T12:14:53;7.35;;;2.67;;
36745;SDS011;22715;52.182;21.206;2022-10-13T12:17:20;4.25;;;2.72;;
36745;SDS011;22715;52.182;21.206;2022-10-13T12:22:32;5.00;;;3.08;;
36745;SDS011;22715;52.182;21.206;2022-10-13T12:24:58;4.25;;;2.17;;
36745;SDS011;22715;52.182;21.206;2022-10-13T12:27:23;4.43;;;1.80;;
36745;SDS011;22715;52.182;21.206;2022-10-13T12:29:49;7.28;;;2.53;;
36745;SDS011;22715;52.182;21.206;2022-10-13T12:35:09;3.85;;;2.55;;
36745;SDS011;22715;52.182;21.206;2022-10-13T12:37:40;8.32;;;3.00;;
36745;SDS011;22715;52.182;21.206;2022-10-13T12:43:26;3.10;;;1.85;;
36745;SDS011;22715;52.182;21.206;2022-10-13T12:45:57;4.97;;;2.67;;
36745;SDS011;22715;52.182;21.206;2022-10-13T12:48:41;9.07;;;2.60;;
36745;SDS011;22715;52.182;21.206;2022-10-13T12:51:22;3.10;;;2.05;;
36745;SDS011;22715;52.182;21.206;2022-10-13T12:53:50;5.13;;;2.22;;
36745;SDS011;22715;52.182;21.206;2022-10-13T12:56:28;5.97;;;2.72;;
36745;SDS011;22715;52.182;21.206;2022-10-13T12:58:58;6.35;;;2.15;;
36745;SDS011;22715;52.182;21.206;2022-10-13T13:04:27;4.60;;;2.35;;
36745;SDS011;22715;52.182;21.206;2022-10-13T13:07:00;8.40;;;4.63;;
36745;SDS011;22715;52.182;21.206;2022-10-13T13:09:32;15.57;;;4.60;;
36745;SDS011;22715;52.182;21.206;2022-10-13T13:12:02;5.65;;;3.78;;
36745;SDS011;22715;52.182;21.206;2022-10-13T13:19:41;10.18;;;3.28;;
36745;SDS011;22715;52.182;21.206;2022-10-13T13:22:10;8.27;;;3.92;;
36745;SDS011;22715;52.182;21.206;2022-10-13T13:24:55;8.82;;;3.30;;
36745;SDS011;22715;52.182;21.206;2022-10-13T13:27:25;8.50;;;4.53;;
36745;SDS011;22715;52.182;21.206;2022-10-13T13:29:51;6.20;;;3.63;;
36745;SDS011;22715;52.182;21.206;2022-10-13T13:32:49;8.00;;;4.25;;
36745;SDS011;22715;52.182;21.206;2022-10-13T13:35:08;8.27;;;3.95;;
36745;SDS011;22715;52.182;21.206;2022-10-13T13:37:51;5.65;;;3.85;;
36745;SDS011;22715;52.182;21.206;2022-10-13T13:40:21;4.78;;;2.58;;
36745;SDS011;22715;52.182;21.206;2022-10-13T13:42:47;5.53;;;3.40;;
36745;SDS011;22715;52.182;21.206;2022-10-13T13:45:12;5.95;;;3.38;;
36745;SDS011;22715;52.182;21.206;2022-10-13T13:47:38;4.65;;;2.33;;
36745;SDS011;22715;52.182;21.206;2022-10-13T13:50:05;7.70;;;3.78;;
36745;SDS011;22715;52.182;21.206;2022-10-13T13:54:59;4.93;;;3.03;;
36745;SDS011;22715;52.182;21.206;2022-10-13T13:57:24;4.75;;;3.28;;
36745;SDS011;22715;52.182;21.206;2022-10-13T13:59:52;12.10;;;5.65;;
36745;SDS011;22715;52.182;21.206;2022-10-13T14:02:18;11.98;;;4.13;;
36745;SDS011;22715;52.182;21.206;2022-10-13T14:04:44;6.28;;;3.90;;
36745;SDS011;22715;52.182;21.206;2022-10-13T14:07:09;9.45;;;3.90;;
36745;SDS011;22715;52.182;21.206;2022-10-13T14:09:35;8.60;;;4.07;;
36745;SDS011;22715;52.182;21.206;2022-10-13T14:12:00;8.25;;;4.07;;
36745;SDS011;22715;52.182;21.206;2022-10-13T14:14:28;8.38;;;3.97;;
36745;SDS011;22715;52.182;21.206;2022-10-13T14:16:53;8.23;;;4.28;;
36745;SDS011;22715;52.182;21.206;2022-10-13T14:19:18;7.05;;;3.63;;
36745;SDS011;22715;52.182;21.206;2022-10-13T14:21:44;6.10;;;4.60;;
36745;SDS011;22715;52.182;21.206;2022-10-13T14:24:10;10.18;;;5.68;;
36745;SDS011;22715;52.182;21.206;2022-10-13T14:26:38;9.80;;;4.07;;
36745;SDS011;22715;52.182;21.206;2022-10-13T14:29:04;9.70;;;4.53;;
36745;SDS011;22715;52.182;21.206;2022-10-13T14:31:29;7.70;;;4.72;;
36745;SDS011;22715;52.182;21.206;2022-10-13T14:33:54;9.50;;;4.00;;
36745;SDS011;22715;52.182;21.206;2022-10-13T14:36:20;8.38;;;4.68;;
36745;SDS011;22715;52.182;21.206;2022-10-13T14:38:45;5.20;;;4.03;;
36745;SDS011;22715;52.182;21.206;2022-10-13T14:41:10;4.63;;;3.47;;
36745;SDS011;22715;52.182;21.206;2022-10-13T14:43:36;5.13;;;2.90;;
36745;SDS011;22715;52.182;21.206;2022-10-13T14:46:02;6.18;;;3.97;;
36745;SDS011;22715;52.182;21.206;2022-10-13T14:48:31;5.55;;;3.65;;
36745;SDS011;22715;52.182;21.206;2022-10-13T14:50:56;5.20;;;2.92;;
36745;SDS011;22715;52.182;21.206;2022-10-13T14:53:22;5.82;;;3.67;;
36745;SDS011;22715;52.182;21.206;2022-10-13T14:55:50;4.22;;;3.20;;
36745;SDS011;22715;52.182;21.206;2022-10-13T14:58:15;5.65;;;3.75;;
36745;SDS011;22715;52.182;21.206;2022-10-13T15:00:41;11.95;;;3.53;;
36745;SDS011;22715;52.182;21.206;2022-10-13T15:03:06;6.18;;;2.55;;
36745;SDS011;22715;52.182;21.206;2022-10-13T15:05:32;3.75;;;2.55;;
36745;SDS011;22715;52.182;21.206;2022-10-13T15:07:57;5.57;;;2.60;;
36745;SDS011;22715;52.182;21.206;2022-10-13T15:10:22;4.97;;;3.67;;
36745;SDS011;22715;52.182;21.206;2022-10-13T15:12:48;5.00;;;2.85;;
36745;SDS011;22715;52.182;21.206;2022-10-13T15:15:13;9.65;;;3.80;;
36745;SDS011;22715;52.182;21.206;2022-10-13T15:17:38;5.55;;;2.50;;
36745;SDS011;22715;52.182;21.206;2022-10-13T15:20:04;8.90;;;3.25;;
36745;SDS011;22715;52.182;21.206;2022-10-13T15:25:32;8.93;;;4.35;;
36745;SDS011;22715;52.182;21.206;2022-10-13T15:27:58;9.40;;;4.57;;
36745;SDS011;22715;52.182;21.206;2022-10-13T15:30:24;8.13;;;3.10;;
36745;SDS011;22715;52.182;21.206;2022-10-13T15:32:49;7.43;;;4.20;;
36745;SDS011;22715;52.182;21.206;2022-10-13T15:35:15;8.65;;;3.33;;
36745;SDS011;22715;52.182;21.206;2022-10-13T15:37:40;6.07;;;3.45;;
36745;SDS011;22715;52.182;21.206;2022-10-13T15:40:05;7.50;;;3.83;;
36745;SDS011;22715;52.182;21.206;2022-10-13T15:42:31;7.63;;;4.28;;
36745;SDS011;22715;52.182;21.206;2022-10-13T15:44:56;9.77;;;5.85;;
36745;SDS011;22715;52.182;21.206;2022-10-13T15:47:22;9.65;;;5.13;;
36745;SDS011;22715;52.182;21.206;2022-10-13T15:49:47;10.82;;;4.70;;
36745;SDS011;22715;52.182;21.206;2022-10-13T15:52:12;8.27;;;4.05;;
36745;SDS011;22715;52.182;21.206;2022-10-13T15:54:37;10.48;;;3.97;;
36745;SDS011;22715;52.182;21.206;2022-10-13T15:57:06;8.57;;;3.90;;
36745;SDS011;22715;52.182;21.206;2022-10-13T15:59:31;8.85;;;4.53;;
36745;SDS011;22715;52.182;21.206;2022-10-13T16:01:57;15.55;;;5.22;;
36745;SDS011;22715;52.182;21.206;2022-10-13T16:04:22;10.68;;;3.92;;
36745;SDS011;22715;52.182;21.206;2022-10-13T16:09:41;14.20;;;4.03;;
36745;SDS011;22715;52.182;21.206;2022-10-13T16:15:17;10.38;;;4.93;;
36745;SDS011;22715;52.182;21.206;2022-10-13T16:18:00;10.93;;;4.50;;
36745;SDS011;22715;52.182;21.206;2022-10-13T16:20:28;10.43;;;4.88;;
36745;SDS011;22715;52.182;21.206;2022-10-13T16:23:01;9.85;;;3.92;;
36745;SDS011;22715;52.182;21.206;2022-10-13T16:25:27;12.95;;;4.18;;
36745;SDS011;22715;52.182;21.206;2022-10-13T16:27:53;10.45;;;4.22;;
36745;SDS011;22715;52.182;21.206;2022-10-13T16:30:21;8.23;;;4.10;;
36745;SDS011;22715;52.182;21.206;2022-10-13T16:32:55;6.40;;;4.68;;
36745;SDS011;22715;52.182;21.206;2022-10-13T16:35:27;6.47;;;4.57;;
36745;SDS011;22715;52.182;21.206;2022-10-13T16:38:01;13.05;;;6.40;;
36745;SDS011;22715;52.182;21.206;2022-10-13T16:40:35;6.28;;;4.30;;
36745;SDS011;22715;52.182;21.206;2022-10-13T16:43:10;15.40;;;6.28;;
36745;SDS011;22715;52.182;21.206;2022-10-13T16:45:35;9.40;;;5.50;;
36745;SDS011;22715;52.182;21.206;2022-10-13T16:48:01;9.25;;;4.25;;
36745;SDS011;22715;52.182;21.206;2022-10-13T16:50:27;12.60;;;5.32;;